Time;durP1;ratioP1;P1;durP2;ratioP2;P2;SDS_P1;SDS_P2;PMS_P1;PMS_P2;Temp;Humidity;BMP_temperature;BMP_pressure;BME280_temperature;BME280_humidity;BME280_pressure;Samples;Min_cycle;Max_cycle;Signal;HPM_P1;HPM_P2
2022/11/30 00:00:19;;;;;;;12.55;10.80;;;8.00;79.50;;;;;;4982413;28;20045;-71
2022/11/30 00:02:48;;;;;;;11.35;9.95;;;8.00;79.50;;;;;;4997640;28;20037;-71
2022/11/30 00:05:14;;;;;;;11.27;9.95;;;7.90;79.40;;;;;;4997856;28;20497;-71
2022/11/30 00:07:40;;;;;;;10.60;9.25;;;7.90;79.40;;;;;;4965246;28;20050;-71
2022/11/30 00:10:07;;;;;;;10.82;9.65;;;7.90;79.40;;;;;;4997687;28;20092;-71
2022/11/30 00:12:32;;;;;;;10.82;8.98;;;7.80;79.30;;;;;;4999323;28;20046;-71
2022/11/30 00:14:58;;;;;;;11.90;8.68;;;7.80;79.30;;;;;;4997931;28;20050;-71
2022/11/30 00:17:24;;;;;;;9.10;7.72;;;7.80;79.40;;;;;;4997805;28;20049;-71
2022/11/30 00:19:49;;;;;;;9.85;7.65;;;7.70;79.40;;;;;;4998523;28;20046;-71
2022/11/30 00:22:15;;;;;;;10.98;8.30;;;7.70;79.40;;;;;;4998448;28;20041;-71
2022/11/30 00:24:41;;;;;;;10.10;8.23;;;7.70;79.40;;;;;;4997154;28;20175;-71
2022/11/30 00:27:06;;;;;;;8.52;7.63;;;7.70;79.40;;;;;;4983366;28;20045;-71
2022/11/30 00:29:33;;;;;;;9.45;8.02;;;7.60;79.40;;;;;;4999084;28;20038;-71
2022/11/30 00:31:58;;;;;;;8.43;7.43;;;7.60;79.50;;;;;;4997554;28;20057;-71
2022/11/30 00:34:24;;;;;;;8.45;7.40;;;7.60;79.50;;;;;;4995571;28;20497;-71
2022/11/30 00:36:50;;;;;;;8.40;7.55;;;7.50;79.50;;;;;;4981409;28;20069;-71
2022/11/30 00:39:15;;;;;;;7.35;6.63;;;7.50;79.50;;;;;;4997435;28;20042;-71
2022/11/30 00:41:41;;;;;;;7.80;7.00;;;7.40;79.40;;;;;;4981207;28;20034;-71
2022/11/30 00:44:06;;;;;;;7.43;6.63;;;7.40;79.30;;;;;;4981222;28;20052;-71
2022/11/30 00:46:32;;;;;;;8.13;6.95;;;7.40;79.70;;;;;;4998383;28;20037;-71
2022/11/30 00:48:58;;;;;;;7.32;6.60;;;7.30;79.30;;;;;;4980853;28;20084;-71
2022/11/30 00:51:24;;;;;;;7.00;6.30;;;7.30;79.20;;;;;;4981093;28;20042;-71
2022/11/30 00:53:49;;;;;;;8.00;6.57;;;7.30;79.70;;;;;;4980323;28;20046;-71
2022/11/30 00:56:15;;;;;;;7.30;6.38;;;7.30;79.30;;;;;;4997026;28;20065;-71
2022/11/30 00:58:41;;;;;;;6.47;5.82;;;7.20;79.30;;;;;;4980650;28;20038;-71
2022/11/30 01:01:07;;;;;;;6.90;6.22;;;7.20;79.30;;;;;;4996919;28;20042;-71
2022/11/30 01:03:33;;;;;;;7.47;6.13;;;7.20;79.30;;;;;;4997570;28;20041;-71
2022/11/30 01:06:08;;;;;;;6.25;5.65;;;7.20;79.30;;;;;;4978962;28;20382;-71
2022/11/30 01:08:34;;;;;;;6.75;5.90;;;7.20;79.40;;;;;;4996743;28;20077;-71
2022/11/30 01:11:16;;;;;;;8.15;6.30;;;7.10;79.30;;;;;;4996874;28;20084;-71
2022/11/30 01:13:43;;;;;;;7.60;6.65;;;7.10;79.40;;;;;;4995635;28;20054;-71
2022/11/30 01:16:10;;;;;;;6.75;6.03;;;7.10;79.40;;;;;;4996658;28;20469;-71
2022/11/30 01:18:37;;;;;;;7.65;6.05;;;7.00;79.40;;;;;;4978400;28;20052;-71
2022/11/30 01:21:12;;;;;;;7.40;6.60;;;7.00;79.50;;;;;;4980316;28;20274;-71
2022/11/30 01:23:39;;;;;;;6.85;6.07;;;7.00;79.50;;;;;;4990004;28;20043;-71
2022/11/30 01:26:06;;;;;;;6.88;6.18;;;7.00;79.60;;;;;;4996385;28;20395;-71
2022/11/30 01:28:32;;;;;;;8.25;7.43;;;7.00;79.60;;;;;;5000319;28;20042;-71
2022/11/30 01:30:59;;;;;;;7.93;7.10;;;6.90;79.60;;;;;;4980295;28;20385;-71
2022/11/30 01:33:25;;;;;;;8.95;7.38;;;6.90;79.70;;;;;;4979867;28;20037;-71
2022/11/30 01:36:04;;;;;;;11.65;8.63;;;6.90;79.80;;;;;;4996189;28;20045;-71
2022/11/30 01:38:38;;;;;;;12.02;9.65;;;6.90;79.90;;;;;;4996771;28;20037;-71
2022/11/30 01:41:06;;;;;;;12.63;8.68;;;6.90;80.00;;;;;;4996079;28;20044;-71
2022/11/30 01:43:46;;;;;;;10.27;8.52;;;6.90;80.10;;;;;;4995807;28;20407;-71
2022/11/30 01:46:39;;;;;;;11.57;9.65;;;6.90;80.20;;;;;;4996057;28;20115;-71
2022/11/30 01:49:08;;;;;;;15.35;11.27;;;6.90;80.70;;;;;;4996027;28;20042;-71
2022/11/30 01:51:37;;;;;;;13.05;10.18;;;6.90;80.40;;;;;;4980782;28;20092;-71
2022/11/30 01:54:06;;;;;;;17.23;12.88;;;6.90;80.50;;;;;;4995943;28;20048;-72
2022/11/30 01:56:32;;;;;;;17.50;13.23;;;6.90;80.60;;;;;;4995372;28;20038;-71
2022/11/30 01:58:58;;;;;;;16.40;13.43;;;6.90;80.70;;;;;;4996193;28;20385;-71
2022/11/30 02:01:24;;;;;;;13.93;10.90;;;6.90;80.80;;;;;;4979638;28;20037;-71
2022/11/30 02:04:17;;;;;;;14.23;10.77;;;6.80;80.90;;;;;;4995561;28;20033;-71
2022/11/30 02:06:43;;;;;;;14.02;11.25;;;6.90;81.30;;;;;;4995558;28;20497;-71
2022/11/30 02:09:10;;;;;;;14.07;10.95;;;6.90;81.30;;;;;;4995683;28;20034;-71
2022/11/30 02:11:35;;;;;;;23.63;16.67;;;6.90;81.50;;;;;;4995532;28;20053;-71
2022/11/30 02:14:36;;;;;;;16.33;12.18;;;6.90;81.50;;;;;;4995295;28;20058;-71
2022/11/30 02:17:36;;;;;;;17.92;12.85;;;6.90;81.60;;;;;;4982473;28;20498;-71
2022/11/30 02:20:15;;;;;;;14.93;11.10;;;6.90;81.70;;;;;;4979413;28;20493;-71
2022/11/30 02:22:58;;;;;;;17.42;13.55;;;6.90;81.80;;;;;;4978488;28;20478;-71
2022/11/30 02:25:45;;;;;;;15.25;11.88;;;7.00;82.00;;;;;;4998563;28;20042;-71
2022/11/30 02:28:32;;;;;;;15.82;12.77;;;6.90;82.00;;;;;;4995349;28;20038;-71
2022/11/30 02:31:01;;;;;;;16.67;12.50;;;7.00;82.10;;;;;;4995529;28;20454;-71
2022/11/30 02:33:30;;;;;;;17.70;13.77;;;7.00;82.10;;;;;;4996580;28;20069;-71
2022/11/30 02:35:58;;;;;;;20.35;15.38;;;7.00;82.10;;;;;;4995019;28;20489;-71
2022/11/30 02:38:26;;;;;;;17.55;13.82;;;7.00;82.10;;;;;;4995288;28;20068;-71
2022/11/30 02:40:52;;;;;;;21.70;16.58;;;7.00;82.10;;;;;;4978990;28;20046;-71
2022/11/30 02:43:21;;;;;;;19.60;15.38;;;7.00;82.10;;;;;;4994995;28;20033;-71
2022/11/30 02:46:07;;;;;;;22.58;17.02;;;7.00;82.10;;;;;;4994972;28;20046;-71
2022/11/30 02:48:55;;;;;;;21.83;16.25;;;7.00;82.10;;;;;;4980348;28;20053;-71
2022/11/30 02:51:23;;;;;;;15.43;12.07;;;7.00;82.10;;;;;;4994918;28;20100;-71
2022/11/30 02:53:49;;;;;;;17.10;13.77;;;7.00;82.10;;;;;;4995094;28;20041;-71
2022/11/30 02:56:16;;;;;;;20.65;15.65;;;7.00;82.20;;;;;;4995035;28;20044;-71
2022/11/30 02:58:42;;;;;;;17.20;12.95;;;7.00;82.20;;;;;;4995011;28;20046;-71
2022/11/30 03:01:08;;;;;;;24.05;16.33;;;7.10;82.30;;;;;;4978691;28;20084;-71
2022/11/30 03:03:34;;;;;;;20.98;15.73;;;7.10;82.40;;;;;;4978513;28;20166;-70
2022/11/30 03:05:59;;;;;;;24.95;18.70;;;7.10;82.40;;;;;;4978367;28;20037;-71
2022/11/30 03:08:25;;;;;;;17.10;13.23;;;7.10;82.30;;;;;;4994512;28;20060;-71
2022/11/30 03:10:50;;;;;;;18.30;13.55;;;7.10;82.20;;;;;;4961566;28;20039;-71
2022/11/30 03:13:16;;;;;;;20.75;14.50;;;7.10;82.30;;;;;;4978857;28;20381;-71
2022/11/30 03:15:42;;;;;;;15.85;12.75;;;7.10;82.40;;;;;;4994585;28;20054;-71
2022/11/30 03:18:07;;;;;;;16.83;13.43;;;7.10;82.50;;;;;;4994035;28;20115;-71
2022/11/30 03:20:33;;;;;;;16.60;13.10;;;7.10;82.50;;;;;;4976244;28;20046;-71
2022/11/30 03:23:00;;;;;;;18.55;13.68;;;7.10;82.50;;;;;;4994486;28;20037;-70
2022/11/30 03:25:27;;;;;;;17.55;13.20;;;7.10;82.50;;;;;;4978466;28;20069;-71
2022/11/30 03:27:52;;;;;;;16.02;12.85;;;7.20;82.50;;;;;;4996074;28;20120;-71
2022/11/30 03:30:18;;;;;;;18.83;14.18;;;7.20;82.50;;;;;;4979390;28;20133;-71
2022/11/30 03:32:44;;;;;;;18.58;13.05;;;7.20;82.50;;;;;;4974243;28;20412;-71
2022/11/30 03:35:09;;;;;;;15.50;12.90;;;7.20;82.40;;;;;;4978322;28;20037;-70
2022/11/30 03:37:35;;;;;;;16.35;12.52;;;7.20;82.30;;;;;;4978431;28;20038;-71
2022/11/30 03:40:01;;;;;;;17.90;13.15;;;7.30;82.30;;;;;;4993282;28;20038;-70
2022/11/30 03:42:26;;;;;;;17.60;13.88;;;7.20;82.20;;;;;;4995076;28;20125;-71
2022/11/30 03:44:52;;;;;;;17.58;12.88;;;7.20;82.10;;;;;;4996134;28;20042;-71
2022/11/30 03:47:17;;;;;;;18.35;12.48;;;7.20;82.10;;;;;;4994332;28;20069;-71
2022/11/30 03:49:43;;;;;;;16.70;12.70;;;7.20;82.00;;;;;;4961980;28;20038;-70
2022/11/30 03:52:09;;;;;;;16.10;12.63;;;7.20;81.90;;;;;;4994272;28;20037;-71
2022/11/30 03:54:34;;;;;;;17.05;12.55;;;7.20;81.90;;;;;;4995001;28;20500;-71
2022/11/30 03:57:00;;;;;;;16.73;12.00;;;7.20;81.80;;;;;;4978077;28;20045;-70
2022/11/30 03:59:26;;;;;;;17.02;12.15;;;7.10;81.70;;;;;;4994179;28;20041;-71
2022/11/30 04:01:51;;;;;;;15.10;12.20;;;7.10;81.70;;;;;;4978055;28;20464;-71
2022/11/30 04:04:17;;;;;;;14.30;11.52;;;7.10;81.60;;;;;;4978028;28;20397;-71
2022/11/30 04:06:42;;;;;;;15.05;11.40;;;7.10;81.60;;;;;;4995576;28;20585;-70
2022/11/30 04:09:09;;;;;;;16.15;12.82;;;7.10;81.50;;;;;;4994386;28;20505;-71
2022/11/30 04:11:34;;;;;;;14.95;11.70;;;7.10;81.50;;;;;;4991787;28;20559;-70
2022/11/30 04:14:00;;;;;;;16.70;12.45;;;7.10;81.40;;;;;;4993086;28;20046;-71
2022/11/30 04:16:26;;;;;;;13.90;11.23;;;7.00;81.30;;;;;;4994388;28;20049;-71
2022/11/30 04:18:52;;;;;;;13.88;10.93;;;7.00;81.20;;;;;;4977966;28;20037;-71
2022/11/30 04:21:18;;;;;;;12.95;10.55;;;7.00;81.10;;;;;;4978635;28;20046;-71
2022/11/30 04:23:43;;;;;;;12.80;10.68;;;7.00;81.00;;;;;;4994145;28;20045;-71
2022/11/30 04:26:14;;;;;;;14.45;11.52;;;6.90;81.00;;;;;;4992285;28;20398;-71
2022/11/30 04:28:40;;;;;;;14.27;10.38;;;6.90;80.90;;;;;;4994645;28;20074;-71
2022/11/30 04:31:08;;;;;;;11.65;9.75;;;6.90;80.90;;;;;;4996766;28;20553;-71
2022/11/30 04:33:34;;;;;;;14.13;10.40;;;6.90;80.80;;;;;;4998653;28;20120;-71
2022/11/30 04:36:02;;;;;;;11.95;9.55;;;6.90;80.70;;;;;;4981198;28;20438;-71
2022/11/30 04:38:28;;;;;;;11.45;9.50;;;6.90;80.70;;;;;;4997438;28;20035;-71
2022/11/30 04:40:54;;;;;;;27.67;6.55;;;6.80;80.60;;;;;;4996870;28;20044;-71
2022/11/30 04:43:21;;;;;;;10.13;8.20;;;6.80;80.50;;;;;;4997184;28;20042;-71
2022/11/30 04:45:47;;;;;;;11.48;8.45;;;6.80;80.40;;;;;;4975385;28;20038;-70
2022/11/30 04:48:14;;;;;;;11.25;8.23;;;6.80;80.30;;;;;;4998395;28;20049;-71
2022/11/30 04:50:40;;;;;;;12.35;9.50;;;6.80;80.40;;;;;;4980923;28;20157;-70
2022/11/30 04:53:06;;;;;;;10.65;8.15;;;6.70;80.40;;;;;;4997021;28;20122;-71
2022/11/30 04:55:32;;;;;;;10.43;7.80;;;6.70;80.50;;;;;;4996901;28;20049;-70
2022/11/30 04:57:57;;;;;;;10.65;8.13;;;6.70;80.50;;;;;;4980885;28;20048;-71
2022/11/30 05:00:23;;;;;;;9.82;8.02;;;6.70;80.60;;;;;;4996805;28;20129;-70
2022/11/30 05:02:49;;;;;;;10.95;8.25;;;6.70;80.70;;;;;;4981399;28;20044;-71
2022/11/30 05:05:15;;;;;;;10.13;8.13;;;6.60;80.70;;;;;;4952387;28;20037;-71
2022/11/30 05:07:40;;;;;;;9.82;8.35;;;6.70;80.80;;;;;;4996755;28;20092;-70
2022/11/30 05:10:07;;;;;;;9.65;8.20;;;6.70;80.90;;;;;;4998850;28;20061;-71
2022/11/30 05:12:33;;;;;;;10.30;7.78;;;6.60;80.90;;;;;;4996710;28;20279;-70
2022/11/30 05:14:59;;;;;;;9.93;8.10;;;6.60;81.00;;;;;;4997694;28;20069;-70
2022/11/30 05:17:24;;;;;;;10.38;8.07;;;6.60;81.00;;;;;;4995971;28;20049;-70
2022/11/30 05:19:50;;;;;;;10.70;8.95;;;6.70;81.20;;;;;;4997631;28;20045;-70
2022/11/30 05:22:16;;;;;;;12.10;8.75;;;6.60;81.20;;;;;;4996821;28;20034;-71
2022/11/30 05:24:41;;;;;;;10.05;8.30;;;6.70;81.30;;;;;;4980324;28;20535;-70
2022/11/30 05:27:07;;;;;;;12.05;9.77;;;6.70;81.30;;;;;;4981926;28;20049;-70
2022/11/30 05:29:36;;;;;;;10.52;8.57;;;6.70;81.40;;;;;;4996816;28;20417;-71
2022/11/30 05:32:02;;;;;;;11.73;9.35;;;6.70;81.40;;;;;;4980140;28;20057;-70
2022/11/30 05:34:27;;;;;;;10.65;8.70;;;6.70;81.40;;;;;;4996238;28;20057;-70
2022/11/30 05:36:53;;;;;;;12.60;9.05;;;6.70;81.50;;;;;;4980240;28;20076;-70
2022/11/30 05:39:19;;;;;;;11.10;9.00;;;6.70;81.50;;;;;;4996462;28;20037;-71
2022/11/30 05:41:45;;;;;;;11.75;9.02;;;6.70;81.60;;;;;;4996634;28;20077;-71
2022/11/30 05:44:11;;;;;;;11.15;8.15;;;6.70;81.60;;;;;;4980034;28;20069;-71
2022/11/30 05:46:37;;;;;;;11.90;9.25;;;6.70;81.60;;;;;;4996268;28;20038;-71
2022/11/30 05:49:03;;;;;;;11.45;9.38;;;6.80;81.70;;;;;;4979883;28;20556;-70
2022/11/30 05:51:29;;;;;;;11.70;9.15;;;6.80;81.80;;;;;;4996045;28;20046;-70
2022/11/30 05:53:54;;;;;;;11.52;8.75;;;6.70;81.80;;;;;;4979494;28;20030;-71
2022/11/30 05:56:20;;;;;;;14.30;10.15;;;6.80;81.90;;;;;;4998192;28;20073;-70
2022/11/30 05:58:46;;;;;;;12.23;9.80;;;6.80;81.90;;;;;;4996421;28;20045;-71
2022/11/30 06:01:24;;;;;;;13.68;10.65;;;6.80;82.00;;;;;;4996120;28;20037;-70
2022/11/30 06:03:51;;;;;;;15.45;11.18;;;6.80;82.00;;;;;;4995464;28;20048;-71
2022/11/30 06:06:17;;;;;;;13.57;11.40;;;6.90;82.50;;;;;;4979394;28;20065;-71
2022/11/30 06:08:44;;;;;;;14.20;11.30;;;6.90;82.00;;;;;;4995759;28;20100;-71
2022/11/30 06:11:10;;;;;;;13.25;10.20;;;6.90;82.10;;;;;;4994039;28;20030;-71
2022/11/30 06:13:36;;;;;;;15.60;11.50;;;6.90;82.10;;;;;;4992727;28;20084;-71
2022/11/30 06:16:03;;;;;;;13.57;10.50;;;6.90;82.10;;;;;;4978550;28;20553;-74
2022/11/30 06:18:29;;;;;;;13.40;10.23;;;6.90;82.10;;;;;;4979304;28;20103;-73
2022/11/30 06:21:03;;;;;;;16.65;13.32;;;6.90;82.20;;;;;;4994428;28;20045;-73
2022/11/30 06:23:30;;;;;;;17.80;12.15;;;6.90;82.20;;;;;;4978073;28;20038;-73
2022/11/30 06:25:56;;;;;;;19.10;14.23;;;6.90;82.20;;;;;;4996507;28;20038;-73
2022/11/30 06:28:22;;;;;;;18.90;14.15;;;7.00;82.20;;;;;;4980075;28;20539;-73
2022/11/30 06:30:47;;;;;;;17.65;13.65;;;7.00;82.20;;;;;;4995515;28;20076;-74
2022/11/30 06:33:13;;;;;;;18.63;15.05;;;7.00;82.20;;;;;;4960112;28;20470;-74
2022/11/30 06:35:45;;;;;;;18.20;14.57;;;7.00;82.20;;;;;;4963855;28;20034;-73
2022/11/30 06:38:11;;;;;;;16.70;12.88;;;7.00;82.20;;;;;;4984356;28;20034;-73
2022/11/30 06:40:38;;;;;;;17.83;13.32;;;7.00;82.10;;;;;;5015865;28;20129;-73
2022/11/30 06:43:03;;;;;;;18.02;13.63;;;7.10;82.20;;;;;;4999747;28;20392;-74
2022/11/30 06:45:30;;;;;;;16.70;12.70;;;7.00;82.10;;;;;;5015800;28;20140;-73
2022/11/30 06:47:56;;;;;;;18.00;14.00;;;7.00;82.00;;;;;;4999492;28;20042;-74
2022/11/30 06:50:23;;;;;;;20.70;14.73;;;7.10;82.50;;;;;;5001434;28;20029;-73
2022/11/30 06:52:48;;;;;;;19.63;15.20;;;7.00;82.00;;;;;;4983001;28;20102;-73
2022/11/30 06:55:14;;;;;;;18.58;14.43;;;7.00;82.00;;;;;;5015664;28;20123;-73
2022/11/30 06:57:40;;;;;;;18.17;14.52;;;7.10;82.00;;;;;;4984544;28;20119;-74
2022/11/30 07:00:07;;;;;;;19.00;14.77;;;7.10;82.00;;;;;;4979811;28;20489;-74
2022/11/30 07:02:33;;;;;;;21.17;16.23;;;7.10;82.00;;;;;;4981564;28;20086;-73
2022/11/30 07:04:58;;;;;;;21.80;16.42;;;7.10;82.00;;;;;;4995320;28;20389;-70
2022/11/30 07:07:27;;;;;;;22.63;17.38;;;7.10;82.00;;;;;;4994302;28;20044;-70
2022/11/30 07:09:52;;;;;;;22.80;16.95;;;7.10;82.00;;;;;;4995097;28;20461;-70
2022/11/30 07:12:18;;;;;;;24.27;16.63;;;7.10;82.00;;;;;;4995246;28;20049;-70
2022/11/30 07:14:43;;;;;;;22.75;17.52;;;7.10;82.00;;;;;;4995015;28;20089;-70
2022/11/30 07:17:09;;;;;;;22.90;16.63;;;7.10;82.00;;;;;;5011059;28;20049;-71
2022/11/30 07:19:35;;;;;;;21.30;15.40;;;7.10;82.00;;;;;;5014892;28;20116;-70
2022/11/30 07:22:01;;;;;;;23.65;16.63;;;7.10;82.10;;;;;;4998894;28;20077;-70
2022/11/30 07:27:10;;;;;;;23.10;16.93;;;7.10;82.10;;;;;;5015349;28;20048;-70
2022/11/30 07:29:36;;;;;;;26.83;17.73;;;7.10;82.20;;;;;;5010430;28;20433;-70
2022/11/30 07:32:01;;;;;;;24.85;17.85;;;7.10;82.20;;;;;;4995555;28;20060;-70
2022/11/30 07:34:27;;;;;;;22.33;16.83;;;7.10;82.20;;;;;;4995465;28;20088;-70
2022/11/30 07:36:53;;;;;;;20.83;15.95;;;7.10;82.20;;;;;;4979586;28;20084;-70
2022/11/30 07:39:18;;;;;;;21.77;15.85;;;7.20;82.30;;;;;;4995498;28;20485;-70
2022/11/30 07:41:44;;;;;;;22.98;16.35;;;7.20;82.30;;;;;;4979315;28;20064;-70
2022/11/30 07:44:10;;;;;;;25.88;19.15;;;7.20;82.40;;;;;;4995413;28;20038;-70
2022/11/30 07:46:37;;;;;;;26.65;19.67;;;7.20;82.40;;;;;;5009254;28;20396;-70
2022/11/30 07:49:04;;;;;;;24.60;16.38;;;7.20;82.30;;;;;;5014871;28;20073;-70
2022/11/30 07:51:31;;;;;;;24.08;17.52;;;7.20;82.30;;;;;;5014980;28;20378;-70
2022/11/30 07:53:57;;;;;;;22.15;16.48;;;7.20;82.40;;;;;;4998557;28;20116;-70
2022/11/30 07:56:24;;;;;;;22.15;16.88;;;7.20;82.40;;;;;;5015155;28;20052;-70
2022/11/30 07:58:52;;;;;;;26.67;18.75;;;7.20;82.40;;;;;;4998621;28;20037;-70
2022/11/30 08:01:21;;;;;;;26.83;18.75;;;7.20;82.40;;;;;;4995911;28;20485;-70
2022/11/30 08:03:47;;;;;;;24.45;16.95;;;7.20;82.80;;;;;;4995884;28;20046;-70
2022/11/30 08:06:19;;;;;;;22.88;16.73;;;7.20;82.30;;;;;;4999366;28;20045;-70
2022/11/30 08:08:46;;;;;;;20.10;15.70;;;7.30;82.40;;;;;;4999005;28;20085;-70
2022/11/30 08:11:15;;;;;;;22.38;15.90;;;7.30;82.50;;;;;;5014674;28;20127;-70
2022/11/30 08:13:42;;;;;;;23.25;16.13;;;7.20;82.50;;;;;;4979333;28;20066;-70
2022/11/30 08:16:11;;;;;;;23.23;17.02;;;7.30;82.60;;;;;;4979679;28;20116;-70
2022/11/30 08:18:38;;;;;;;24.52;16.70;;;7.30;82.60;;;;;;4963254;28;20560;-70
2022/11/30 08:21:05;;;;;;;22.08;15.65;;;7.20;82.70;;;;;;4979358;28;20047;-70
2022/11/30 08:23:37;;;;;;;21.60;15.95;;;7.30;82.70;;;;;;4979370;28;20042;-70
2022/11/30 08:26:18;;;;;;;21.50;15.55;;;7.30;82.80;;;;;;4996209;28;20042;-70
2022/11/30 08:28:45;;;;;;;25.23;17.50;;;7.30;82.80;;;;;;5018210;28;20497;-70
2022/11/30 08:31:17;;;;;;;22.10;16.08;;;7.40;82.80;;;;;;5018224;28;20045;-70
2022/11/30 08:33:43;;;;;;;21.50;17.08;;;7.40;82.90;;;;;;5018255;28;20041;-70
2022/11/30 08:36:14;;;;;;;22.85;16.92;;;7.40;82.80;;;;;;5018163;28;20112;-70
2022/11/30 08:38:41;;;;;;;22.83;17.83;;;7.40;82.90;;;;;;4990700;28;20042;-70
2022/11/30 08:41:09;;;;;;;27.50;19.52;;;7.50;82.90;;;;;;4998411;28;20053;-70
2022/11/30 08:43:34;;;;;;;27.23;18.65;;;7.50;82.90;;;;;;4998430;28;20046;-70
2022/11/30 08:46:05;;;;;;;22.77;17.63;;;7.50;82.90;;;;;;4998419;28;20409;-70
2022/11/30 08:48:31;;;;;;;23.63;17.25;;;7.50;82.90;;;;;;4998217;28;20049;-70
2022/11/30 08:51:03;;;;;;;32.22;21.63;;;7.50;82.90;;;;;;5005095;28;20038;-70
2022/11/30 08:53:28;;;;;;;32.53;21.20;;;7.50;82.90;;;;;;5017781;28;20037;-70
2022/11/30 08:56:03;;;;;;;34.42;21.52;;;7.50;82.80;;;;;;5018012;28;20057;-70
2022/11/30 08:58:31;;;;;;;31.70;21.25;;;7.60;82.80;;;;;;5017781;28;20048;-70
2022/11/30 09:01:18;;;;;;;34.83;21.17;;;7.60;82.80;;;;;;5018028;28;20111;-70
2022/11/30 09:03:45;;;;;;;37.88;22.60;;;7.60;82.80;;;;;;4996895;28;20049;-70
2022/11/30 09:06:17;;;;;;;36.08;22.60;;;7.50;83.10;;;;;;4978416;28;20057;-70
2022/11/30 09:08:45;;;;;;;37.03;23.15;;;7.60;82.80;;;;;;4978417;28;20129;-70
2022/11/30 09:11:12;;;;;;;33.47;21.70;;;7.50;82.70;;;;;;4978426;28;20034;-70
2022/11/30 09:13:39;;;;;;;35.50;22.33;;;7.60;82.90;;;;;;4978540;28;20426;-70
2022/11/30 09:16:06;;;;;;;35.22;21.70;;;7.60;83.00;;;;;;4978306;28;20048;-70
2022/11/30 09:18:32;;;;;;;30.90;20.30;;;7.60;83.00;;;;;;5002214;28;20041;-70
2022/11/30 09:21:01;;;;;;;35.00;22.58;;;7.60;83.00;;;;;;5001004;28;20106;-70
2022/11/30 09:23:27;;;;;;;38.92;24.35;;;7.60;83.00;;;;;;5001250;28;20049;-70
2022/11/30 09:25:57;;;;;;;36.70;22.85;;;7.60;83.10;;;;;;5017549;28;20107;-70
2022/11/30 09:28:24;;;;;;;38.95;23.70;;;7.70;83.20;;;;;;5017288;28;20458;-70
2022/11/30 09:30:49;;;;;;;36.33;23.33;;;7.60;83.50;;;;;;5012138;28;20481;-70
2022/11/30 09:33:15;;;;;;;41.20;25.48;;;7.60;83.20;;;;;;4981638;28;20049;-70
2022/11/30 09:35:41;;;;;;;38.83;23.55;;;7.60;83.20;;;;;;4997448;28;20041;-70
2022/11/30 09:38:07;;;;;;;34.70;22.17;;;7.60;83.30;;;;;;4981245;28;20046;-70
2022/11/30 09:40:36;;;;;;;34.92;22.08;;;7.60;83.30;;;;;;4997740;28;20128;-70
2022/11/30 09:43:30;;;;;;;32.83;20.58;;;7.60;83.40;;;;;;4997325;28;20045;-70
2022/11/30 09:46:00;;;;;;;36.42;21.75;;;7.60;83.20;;;;;;4995389;28;20054;-70
2022/11/30 09:48:51;;;;;;;30.25;19.10;;;7.60;83.00;;;;;;5016851;28;20042;-70
2022/11/30 09:51:28;;;;;;;35.97;21.73;;;7.60;83.10;;;;;;5016873;28;20493;-70
2022/11/30 09:53:58;;;;;;;30.67;20.27;;;7.60;83.10;;;;;;5016963;28;20045;-70
2022/11/30 09:56:31;;;;;;;32.60;20.92;;;7.60;83.00;;;;;;5016766;28;20069;-70
2022/11/30 09:59:14;;;;;;;33.65;20.70;;;7.60;82.90;;;;;;5002486;28;20433;-70
2022/11/30 10:01:43;;;;;;;31.02;19.67;;;7.60;82.90;;;;;;4980724;28;20512;-70
2022/11/30 10:04:28;;;;;;;32.90;20.65;;;7.60;82.80;;;;;;4997153;28;20073;-70
2022/11/30 10:06:57;;;;;;;33.10;19.15;;;7.60;82.80;;;;;;4996722;28;20060;-70
2022/11/30 10:09:43;;;;;;;35.55;22.23;;;7.60;82.80;;;;;;4996744;28;20547;-70
2022/11/30 10:12:15;;;;;;;35.85;20.48;;;7.50;82.70;;;;;;5005388;28;20046;-70
2022/11/30 10:14:47;;;;;;;33.75;20.55;;;7.60;82.90;;;;;;5015635;28;20137;-70
2022/11/30 10:17:50;;;;;;;30.67;19.17;;;7.60;82.90;;;;;;4999781;28;20494;-70
2022/11/30 10:20:45;;;;;;;34.40;20.75;;;7.60;82.90;;;;;;5016175;28;20087;-70
2022/11/30 10:23:35;;;;;;;33.00;20.45;;;7.60;83.00;;;;;;5015925;28;20041;-70
2022/11/30 10:26:15;;;;;;;31.80;19.98;;;7.60;82.90;;;;;;4984904;28;20176;-70
2022/11/30 10:28:51;;;;;;;30.65;19.65;;;7.60;82.90;;;;;;4980095;28;20049;-70
2022/11/30 10:31:20;;;;;;;28.60;19.33;;;7.70;82.90;;;;;;4996732;28;20042;-70
2022/11/30 10:33:49;;;;;;;29.00;19.67;;;7.60;82.80;;;;;;4996313;28;20088;-70
2022/11/30 10:36:34;;;;;;;32.90;20.10;;;7.70;82.90;;;;;;4996263;28;20045;-70
2022/11/30 10:39:03;;;;;;;34.15;21.13;;;7.70;83.00;;;;;;5003632;28;20049;-70
2022/11/30 10:41:34;;;;;;;26.55;18.67;;;7.70;83.00;;;;;;5015959;28;20045;-70
2022/11/30 10:44:08;;;;;;;30.85;19.13;;;7.70;82.90;;;;;;5016167;28;20369;-70
2022/11/30 10:46:37;;;;;;;33.28;20.77;;;7.80;83.00;;;;;;5016021;28;20488;-70
2022/11/30 10:49:05;;;;;;;29.98;19.45;;;7.80;82.80;;;;;;5015661;28;20088;-70
2022/11/30 10:51:35;;;;;;;30.13;20.25;;;7.80;82.60;;;;;;5013298;28;20037;-70
2022/11/30 10:54:04;;;;;;;32.55;20.70;;;7.80;82.60;;;;;;4979939;28;20481;-70
2022/11/30 10:56:30;;;;;;;32.65;20.58;;;7.80;82.60;;;;;;4996196;28;20104;-70
2022/11/30 10:59:09;;;;;;;33.45;21.10;;;7.80;82.60;;;;;;4995931;28;20052;-70
2022/11/30 11:01:38;;;;;;;30.58;19.52;;;7.90;82.60;;;;;;4996112;28;20112;-70
2022/11/30 11:04:11;;;;;;;34.60;20.33;;;7.90;82.50;;;;;;4979605;28;20052;-70
2022/11/30 11:06:42;;;;;;;32.35;20.23;;;7.90;82.30;;;;;;5008615;28;20369;-70
2022/11/30 11:09:45;;;;;;;33.05;20.60;;;7.90;82.30;;;;;;5015060;28;20080;-70
2022/11/30 11:12:24;;;;;;;27.88;19.30;;;7.90;82.80;;;;;;5015477;28;20050;-70
2022/11/30 11:15:23;;;;;;;32.05;19.45;;;7.90;82.40;;;;;;4998798;28;20091;-70
2022/11/30 11:17:50;;;;;;;28.30;18.48;;;7.90;82.30;;;;;;5009010;28;20497;-70
2022/11/30 11:20:29;;;;;;;31.85;19.98;;;7.90;82.30;;;;;;4998533;28;20061;-70
2022/11/30 11:22:55;;;;;;;31.88;19.95;;;8.00;82.40;;;;;;4995626;28;20038;-70
2022/11/30 11:25:35;;;;;;;32.72;20.05;;;8.00;82.20;;;;;;4979466;28;20045;-70
2022/11/30 11:28:12;;;;;;;29.92;19.15;;;8.00;82.10;;;;;;4979300;28;20038;-70
2022/11/30 11:30:38;;;;;;;32.50;19.95;;;8.00;82.00;;;;;;4995793;28;20124;-70
2022/11/30 11:33:18;;;;;;;32.40;20.80;;;8.00;81.80;;;;;;5003642;28;20056;-70
2022/11/30 11:35:45;;;;;;;32.72;19.77;;;8.00;81.70;;;;;;5015274;28;20376;-70
2022/11/30 11:38:27;;;;;;;32.20;22.10;;;8.00;81.60;;;;;;5015259;28;20041;-70
2022/11/30 11:41:06;;;;;;;34.58;21.52;;;8.00;81.50;;;;;;5019017;28;20120;-70
2022/11/30 11:43:39;;;;;;;33.75;19.60;;;8.00;81.50;;;;;;5018961;28;20052;-70
2022/11/30 11:46:12;;;;;;;34.78;21.65;;;8.00;81.40;;;;;;5011966;28;20038;-70
2022/11/30 11:48:47;;;;;;;37.08;25.38;;;8.00;81.40;;;;;;4999364;28;20416;-70
2022/11/30 11:51:17;;;;;;;32.72;22.40;;;8.00;81.40;;;;;;4999579;28;20390;-70
2022/11/30 11:53:50;;;;;;;36.15;24.08;;;8.00;81.40;;;;;;4983761;28;20057;-70
2022/11/30 11:56:36;;;;;;;33.17;22.23;;;8.10;81.40;;;;;;4999302;28;20123;-70
2022/11/30 11:59:18;;;;;;;37.40;24.13;;;8.10;81.20;;;;;;4999415;28;20071;-71
2022/11/30 12:01:57;;;;;;;34.97;23.63;;;8.10;81.20;;;;;;4979746;28;20136;-71
2022/11/30 12:04:47;;;;;;;32.92;22.92;;;8.10;81.30;;;;;;4979489;28;20498;-70
2022/11/30 12:07:34;;;;;;;30.15;21.70;;;8.10;81.20;;;;;;4979796;28;20042;-70
2022/11/30 12:10:25;;;;;;;34.03;21.20;;;8.10;81.30;;;;;;4963326;28;20039;-70
2022/11/30 12:12:52;;;;;;;37.08;23.55;;;8.20;81.30;;;;;;4963285;28;20540;-71
2022/11/30 12:15:21;;;;;;;31.80;21.30;;;8.10;81.10;;;;;;5003746;28;20060;-70
2022/11/30 12:18:17;;;;;;;31.65;20.85;;;8.20;81.00;;;;;;5018447;28;20083;-70
2022/11/30 12:21:02;;;;;;;29.45;21.73;;;8.20;80.90;;;;;;5018428;28;20037;-70
2022/11/30 12:23:37;;;;;;;32.80;21.70;;;8.20;81.00;;;;;;5001974;28;20041;-70
2022/11/30 12:26:28;;;;;;;30.85;20.40;;;8.20;80.90;;;;;;5018314;28;20042;-70
2022/11/30 12:29:16;;;;;;;30.20;19.77;;;8.20;80.80;;;;;;4991092;28;20100;-70
2022/11/30 12:32:16;;;;;;;32.10;21.40;;;8.20;80.80;;;;;;4998767;28;20050;-70
2022/11/30 12:35:00;;;;;;;36.75;22.02;;;8.20;80.70;;;;;;4998569;28;20038;-70
2022/11/30 12:37:59;;;;;;;32.65;21.70;;;8.20;80.60;;;;;;4998561;28;20046;-70
2022/11/30 12:40:54;;;;;;;30.27;20.77;;;8.20;80.50;;;;;;5007737;28;20040;-70
2022/11/30 12:43:36;;;;;;;31.88;21.45;;;8.20;80.10;;;;;;5017963;28;20041;-70
2022/11/30 12:46:21;;;;;;;31.15;22.45;;;8.10;80.10;;;;;;5018116;28;20052;-70
2022/11/30 12:49:13;;;;;;;34.22;21.90;;;8.20;80.20;;;;;;5017961;28;20050;-70
2022/11/30 12:52:19;;;;;;;31.25;20.98;;;8.20;80.20;;;;;;5018204;28;20046;-70
2022/11/30 12:55:29;;;;;;;30.90;21.55;;;8.20;80.20;;;;;;5004068;28;20099;-70
2022/11/30 12:58:15;;;;;;;30.73;21.13;;;8.20;80.20;;;;;;4968234;28;20053;-70
2022/11/30 13:00:52;;;;;;;31.85;22.25;;;8.20;80.20;;;;;;4998117;28;20046;-70